Time;durP1;ratioP1;P1;durP2;ratioP2;P2;SDS_P1;SDS_P2;PMS_P1;PMS_P2;Temp;Humidity;BMP_temperature;BMP_pressure;BME280_temperature;BME280_humidity;BME280_pressure;Samples;Min_cycle;Max_cycle;Signal;HPM_P1;HPM_P2
2024/02/10 00:00:36;;;;;;;8.05;2.63;;;;;;;;;;5101582;28;20028;-67
2024/02/10 00:03:02;;;;;;;9.80;3.55;;;11.10;94.30;;;;;;5101825;28;20035;-67
2024/02/10 00:05:28;;;;;;;12.15;4.13;;;11.10;99.90;;;;;;5101821;28;20016;-67
2024/02/10 00:07:57;;;;;;;8.65;4.47;;;11.10;99.90;;;;;;5101491;28;20023;-67
2024/02/10 00:10:25;;;;;;;11.27;3.40;;;11.20;94.50;;;;;;5101830;28;20100;-67
2024/02/10 00:13:00;;;;;;;9.50;4.03;;;11.20;94.30;;;;;;5101750;28;20190;-67
2024/02/10 00:15:27;;;;;;;9.52;3.92;;;11.10;99.90;;;;;;5095175;28;20036;-67
2024/02/10 00:17:52;;;;;;;9.07;4.28;;;11.30;99.90;;;;;;5098952;28;20034;-68
2024/02/10 00:20:20;;;;;;;10.75;4.20;;;11.20;99.90;;;;;;5101519;28;20019;-68
2024/02/10 00:22:47;;;;;;;9.05;4.10;;;11.30;99.90;;;;;;5101234;28;20020;-68
2024/02/10 00:25:15;;;;;;;9.52;4.03;;;11.20;99.90;;;;;;5100215;28;20027;-67
2024/02/10 00:27:42;;;;;;;12.75;3.85;;;11.30;99.90;;;;;;5101308;28;20216;-67
2024/02/10 00:30:08;;;;;;;6.03;3.55;;;11.30;99.90;;;;;;5101488;28;20062;-67
2024/02/10 00:32:37;;;;;;;11.32;4.68;;;11.30;99.90;;;;;;5099479;28;20048;-67
2024/02/10 00:35:04;;;;;;;8.55;3.80;;;11.30;99.90;;;;;;5102057;28;20032;-68
2024/02/10 00:37:30;;;;;;;9.90;4.10;;;11.40;99.90;;;;;;5105342;28;20024;-68
2024/02/10 00:39:55;;;;;;;12.52;5.45;;;11.20;99.90;;;;;;5105463;28;20019;-67
2024/02/10 00:42:24;;;;;;;10.07;3.85;;;11.30;99.90;;;;;;5105398;28;20020;-68
2024/02/10 00:44:51;;;;;;;4.78;3.03;;;11.10;99.90;;;;;;5105227;28;20024;-67
2024/02/10 00:47:17;;;;;;;6.45;3.50;;;11.40;99.90;;;;;;5105320;28;20032;-68
2024/02/10 00:49:43;;;;;;;9.15;3.45;;;11.40;99.90;;;;;;5105177;28;20069;-67
2024/02/10 00:52:08;;;;;;;9.68;3.95;;;11.50;99.90;;;;;;5104285;28;20046;-69
2024/02/10 00:54:37;;;;;;;10.70;3.60;;;11.20;99.90;;;;;;5079871;28;20325;-68
2024/02/10 00:57:10;;;;;;;12.45;4.32;;;11.50;99.90;;;;;;5064664;28;20024;-68
2024/02/10 00:59:41;;;;;;;7.38;3.88;;;11.50;99.90;;;;;;5078445;28;20028;-68
2024/02/10 01:02:17;;;;;;;8.88;3.47;;;11.40;99.90;;;;;;5084452;28;20058;-68
2024/02/10 01:04:46;;;;;;;10.38;3.88;;;11.30;99.90;;;;;;5084581;28;20028;-67
2024/02/10 01:07:15;;;;;;;13.00;3.83;;;11.40;99.90;;;;;;5066685;28;20032;-67
2024/02/10 01:09:44;;;;;;;12.57;4.13;;;11.30;99.90;;;;;;5064620;28;20017;-67
2024/02/10 01:12:09;;;;;;;8.10;3.28;;;11.40;99.90;;;;;;5064567;28;20048;-67
2024/02/10 01:14:38;;;;;;;7.00;3.08;;;11.30;99.90;;;;;;5064493;28;20033;-67
2024/02/10 01:17:04;;;;;;;7.27;3.83;;;11.40;99.90;;;;;;5064362;28;20028;-67
2024/02/10 01:19:30;;;;;;;11.25;3.85;;;11.50;99.40;;;;;;5064189;28;20040;-66
2024/02/10 01:21:56;;;;;;;8.43;3.28;;;11.40;99.20;;;;;;5064268;28;20261;-66
2024/02/10 01:24:22;;;;;;;8.52;3.35;;;11.40;99.00;;;;;;5064394;28;20363;-67
2024/02/10 01:26:49;;;;;;;11.63;3.95;;;11.40;90.90;;;;;;5064251;28;20347;-67
2024/02/10 01:29:15;;;;;;;11.27;3.42;;;11.40;98.40;;;;;;5063826;28;20024;-67
2024/02/10 01:31:41;;;;;;;7.78;3.33;;;11.30;98.30;;;;;;5063929;28;20027;-64
2024/02/10 01:34:08;;;;;;;12.73;3.42;;;11.30;98.30;;;;;;5063677;28;20056;-64
2024/02/10 01:36:34;;;;;;;9.80;3.42;;;11.40;90.20;;;;;;5064055;28;20029;-65
2024/02/10 01:39:01;;;;;;;6.88;3.35;;;11.30;98.00;;;;;;5063732;28;20045;-64
2024/02/10 01:41:29;;;;;;;14.55;3.90;;;11.40;97.90;;;;;;5063690;28;20021;-64
2024/02/10 01:43:55;;;;;;;8.82;3.78;;;11.40;97.80;;;;;;5062904;28;20028;-64
2024/02/10 01:46:22;;;;;;;13.05;3.55;;;11.70;97.50;;;;;;5063876;28;20339;-64
2024/02/10 01:48:49;;;;;;;10.23;3.28;;;11.40;88.70;;;;;;5063882;28;20052;-65
2024/02/10 01:51:17;;;;;;;6.05;2.67;;;11.40;97.20;;;;;;5063649;28;20070;-65
2024/02/10 01:53:47;;;;;;;17.90;3.40;;;11.40;97.30;;;;;;5077193;28;20031;-65
2024/02/10 01:56:17;;;;;;;7.25;3.65;;;11.40;97.00;;;;;;5103821;28;20019;-64
2024/02/10 01:58:47;;;;;;;7.78;2.85;;;11.40;96.80;;;;;;5103718;28;20331;-65
2024/02/10 02:01:15;;;;;;;7.07;2.42;;;11.50;96.80;;;;;;5103626;28;20311;-65
2024/02/10 02:03:44;;;;;;;8.70;2.35;;;11.40;96.60;;;;;;5103920;28;20046;-65
2024/02/10 02:06:17;;;;;;;8.13;3.15;;;11.50;96.70;;;;;;5103804;28;20036;-65
2024/02/10 02:08:51;;;;;;;5.57;2.90;;;11.30;91.70;;;;;;5103539;28;20031;-65
2024/02/10 02:11:17;;;;;;;9.85;3.22;;;11.50;96.40;;;;;;5103959;28;20019;-66
2024/02/10 02:13:43;;;;;;;8.98;3.35;;;11.30;95.90;;;;;;5103672;28;20027;-66
2024/02/10 02:16:12;;;;;;;5.82;2.45;;;11.40;96.00;;;;;;5103845;28;20020;-66
2024/02/10 02:18:39;;;;;;;6.97;2.20;;;11.30;95.90;;;;;;5103786;28;20065;-66
2024/02/10 02:21:06;;;;;;;6.40;2.65;;;11.40;96.00;;;;;;5103449;28;20020;-65
2024/02/10 02:23:35;;;;;;;9.40;2.85;;;11.40;95.90;;;;;;5103605;28;20054;-64
2024/02/10 02:26:00;;;;;;;;;;;11.40;85.70;;;;;;5103988;28;20020;-66
2024/02/10 02:28:26;;;;;;;6.07;2.38;;;11.40;96.00;;;;;;5103285;28;19900;-67
2024/02/10 02:30:52;;;;;;;10.23;2.58;;;11.40;96.00;;;;;;5101967;28;20320;-67
2024/02/10 02:33:17;;;;;;;13.70;2.72;;;11.40;95.90;;;;;;5102900;28;20090;-67
2024/02/10 02:35:43;;;;;;;6.70;2.13;;;11.50;95.90;;;;;;5103135;28;20016;-66
2024/02/10 02:38:13;;;;;;;10.75;2.53;;;11.30;84.90;;;;;;5102941;28;20024;-68
2024/02/10 02:40:39;;;;;;;8.02;2.67;;;11.50;95.80;;;;;;5103161;28;20016;-68
2024/02/10 02:43:05;;;;;;;6.20;2.30;;;11.40;95.80;;;;;;5103171;28;20024;-68
2024/02/10 02:45:30;;;;;;;5.57;2.22;;;11.20;95.80;;;;;;5103277;28;20065;-68
2024/02/10 02:48:03;;;;;;;8.48;2.83;;;11.30;84.70;;;;;;5103058;28;20030;-67
2024/02/10 02:50:30;;;;;;;6.80;2.60;;;11.40;96.00;;;;;;5103081;28;20062;-68
2024/02/10 02:53:02;;;;;;;5.07;2.20;;;11.50;96.20;;;;;;5102637;28;20042;-68
2024/02/10 02:55:28;;;;;;;6.57;2.35;;;11.30;96.20;;;;;;5102854;28;20023;-66
2024/02/10 02:57:54;;;;;;;6.38;2.78;;;11.40;96.40;;;;;;5102786;28;20027;-67
2024/02/10 03:00:20;;;;;;;15.85;3.42;;;11.20;96.40;;;;;;5102573;28;20387;-66
2024/02/10 03:02:46;;;;;;;9.30;3.45;;;11.20;96.40;;;;;;5102420;28;20024;-66
2024/02/10 03:05:12;;;;;;;7.82;2.80;;;11.30;96.80;;;;;;5102578;28;20379;-67
2024/02/10 03:07:45;;;;;;;6.00;2.10;;;11.10;96.90;;;;;;5085944;28;20047;-66
2024/02/10 03:10:15;;;;;;;10.68;2.45;;;11.20;97.00;;;;;;5066203;28;20078;-67
2024/02/10 03:12:42;;;;;;;5.95;2.92;;;11.10;96.90;;;;;;5065554;28;20032;-67
2024/02/10 03:15:09;;;;;;;8.63;2.45;;;11.10;96.90;;;;;;5061963;28;20302;-67
2024/02/10 03:17:36;;;;;;;9.13;2.50;;;11.20;96.90;;;;;;5074525;28;20016;-67
2024/02/10 03:20:02;;;;;;;8.30;2.83;;;11.20;96.90;;;;;;5081957;28;20038;-67
2024/02/10 03:22:28;;;;;;;5.53;2.55;;;11.20;96.80;;;;;;5081804;28;20032;-67
2024/02/10 03:24:54;;;;;;;6.75;2.30;;;11.30;96.90;;;;;;5080718;28;20039;-67
2024/02/10 03:27:21;;;;;;;7.90;3.78;;;11.40;96.90;;;;;;5081780;28;20061;-67
2024/02/10 03:29:47;;;;;;;5.72;2.45;;;11.20;96.70;;;;;;5082110;28;20028;-67
2024/02/10 03:32:13;;;;;;;5.90;2.83;;;11.20;96.90;;;;;;5081416;28;20032;-67
2024/02/10 03:34:39;;;;;;;9.95;2.47;;;11.10;96.90;;;;;;5081573;28;20092;-67
2024/02/10 03:37:05;;;;;;;10.07;3.45;;;11.20;97.00;;;;;;5081495;28;20135;-67
2024/02/10 03:39:31;;;;;;;7.47;2.88;;;11.20;96.90;;;;;;5081841;28;20021;-67
2024/02/10 03:41:57;;;;;;;11.93;2.58;;;11.20;87.40;;;;;;5081702;28;20335;-67
2024/02/10 03:44:22;;;;;;;9.02;2.50;;;11.30;97.20;;;;;;5080387;28;20036;-67
2024/02/10 03:46:52;;;;;;;5.00;2.50;;;11.30;97.40;;;;;;5080157;28;20032;-67
2024/02/10 03:49:18;;;;;;;5.60;3.25;;;11.20;97.40;;;;;;5081358;28;20370;-67
2024/02/10 03:51:43;;;;;;;8.02;3.13;;;11.20;88.20;;;;;;5081598;28;20032;-67
2024/02/10 03:54:12;;;;;;;4.93;2.70;;;11.20;97.50;;;;;;5080629;28;20202;-67
2024/02/10 03:56:41;;;;;;;5.95;2.50;;;11.00;97.40;;;;;;5101517;28;20016;-66
2024/02/10 03:59:10;;;;;;;4.53;2.08;;;11.60;97.50;;;;;;5101534;28;20351;-66
2024/02/10 04:01:35;;;;;;;3.60;2.55;;;11.20;88.40;;;;;;5101395;28;20340;-66
2024/02/10 04:04:01;;;;;;;7.82;2.30;;;11.40;97.50;;;;;;5101725;28;20081;-67
2024/02/10 04:06:28;;;;;;;5.97;2.60;;;11.20;97.30;;;;;;5100907;28;20024;-66
2024/02/10 04:08:54;;;;;;;5.22;2.70;;;11.30;97.50;;;;;;5101546;28;20220;-65
2024/02/10 04:11:20;;;;;;;4.90;2.17;;;11.20;97.50;;;;;;5101545;28;20039;-68
2024/02/10 04:13:46;;;;;;;5.13;2.08;;;11.70;97.40;;;;;;5101533;28;20035;-65
2024/02/10 04:16:12;;;;;;;6.55;2.38;;;11.40;97.20;;;;;;5101372;28;20024;-68
2024/02/10 04:18:39;;;;;;;6.38;2.60;;;11.30;97.20;;;;;;5101247;28;20373;-66
2024/02/10 04:21:05;;;;;;;3.67;2.20;;;11.30;97.20;;;;;;5101408;28;20126;-70
2024/02/10 04:23:32;;;;;;;4.78;2.50;;;11.40;97.20;;;;;;5101425;28;20027;-71
2024/02/10 04:26:02;;;;;;;8.82;2.83;;;11.30;97.30;;;;;;5101102;28;20340;-70
2024/02/10 04:28:28;;;;;;;10.05;3.17;;;11.30;97.30;;;;;;5101249;28;20031;-69
2024/02/10 04:30:54;;;;;;;4.75;2.95;;;11.30;97.30;;;;;;5101098;28;20028;-69
2024/02/10 04:33:20;;;;;;;7.65;2.78;;;11.20;88.10;;;;;;5100869;28;20048;-69
2024/02/10 04:35:46;;;;;;;10.32;3.47;;;11.10;97.50;;;;;;5101390;28;20058;-69
2024/02/10 04:38:12;;;;;;;6.25;2.55;;;11.40;97.40;;;;;;5101086;28;20313;-69
2024/02/10 04:40:38;;;;;;;6.65;2.88;;;;;;;;;;5101331;28;20035;-70
2024/02/10 04:43:04;;;;;;;4.35;2.47;;;11.20;87.40;;;;;;5101314;28;20039;-70
2024/02/10 04:45:32;;;;;;;8.20;2.92;;;11.30;98.00;;;;;;5101243;28;20016;-70
2024/02/10 04:47:59;;;;;;;11.52;3.88;;;11.20;87.70;;;;;;5101222;28;20077;-68
2024/02/10 04:50:25;;;;;;;5.30;2.38;;;11.20;87.70;;;;;;5101097;28;20024;-70
2024/02/10 04:52:51;;;;;;;6.80;2.67;;;11.40;97.80;;;;;;5100987;28;20028;-70
2024/02/10 04:55:18;;;;;;;5.53;2.60;;;11.10;97.30;;;;;;5100975;28;20208;-69
2024/02/10 04:57:45;;;;;;;6.80;3.20;;;11.40;97.30;;;;;;5100880;28;20227;-70
2024/02/10 05:00:17;;;;;;;6.47;2.25;;;11.20;97.30;;;;;;5101312;28;20070;-71
2024/02/10 05:02:53;;;;;;;5.80;2.60;;;11.40;97.40;;;;;;5100933;28;20012;-69
2024/02/10 05:05:20;;;;;;;6.32;3.10;;;11.10;97.70;;;;;;5101161;28;20110;-69
2024/02/10 05:07:51;;;;;;;7.55;2.80;;;11.00;97.70;;;;;;5100992;28;20035;-70
2024/02/10 05:10:20;;;;;;;6.93;2.50;;;11.00;88.60;;;;;;5100972;28;20042;-70
2024/02/10 05:12:46;;;;;;;;;;;11.00;88.70;;;;;;5101075;28;20249;-67
2024/02/10 05:15:19;;;;;;;3.20;2.60;;;11.00;98.10;;;;;;5100806;28;19977;-68
2024/02/10 05:17:49;;;;;;;6.30;2.28;;;11.20;97.90;;;;;;5101495;28;20032;-68
2024/02/10 05:20:23;;;;;;;7.65;2.95;;;11.00;97.90;;;;;;5104746;28;20335;-68
2024/02/10 05:22:51;;;;;;;7.47;2.67;;;10.90;98.00;;;;;;5104724;28;20027;-68
2024/02/10 05:25:22;;;;;;;6.28;3.05;;;10.90;98.10;;;;;;5104474;28;20019;-68
2024/02/10 05:27:49;;;;;;;11.02;3.45;;;11.00;98.40;;;;;;5104442;28;20028;-67
2024/02/10 05:30:24;;;;;;;6.20;2.85;;;10.80;98.50;;;;;;5104527;28;20024;-68
2024/02/10 05:32:51;;;;;;;6.70;2.58;;;10.90;98.40;;;;;;5104417;28;20221;-68
2024/02/10 05:35:18;;;;;;;4.85;2.78;;;10.70;98.50;;;;;;5104518;28;20047;-67
2024/02/10 05:37:53;;;;;;;3.75;2.33;;;10.50;98.90;;;;;;5104212;28;20020;-66
2024/02/10 05:40:19;;;;;;;6.38;2.72;;;10.80;98.80;;;;;;5102259;28;20020;-66
2024/02/10 05:42:47;;;;;;;7.15;2.30;;;10.70;98.80;;;;;;5083542;28;20105;-66
2024/02/10 05:45:16;;;;;;;6.13;2.85;;;10.80;99.00;;;;;;5083201;28;20020;-68
2024/02/10 05:47:44;;;;;;;6.75;2.47;;;10.50;99.00;;;;;;5082792;28;20349;-67
2024/02/10 05:50:15;;;;;;;5.20;2.30;;;10.70;98.80;;;;;;5082857;28;20017;-69
2024/02/10 05:52:42;;;;;;;5.40;2.60;;;10.70;98.80;;;;;;5081390;28;20388;-69
2024/02/10 05:55:12;;;;;;;11.23;2.58;;;10.80;98.80;;;;;;5082168;28;20246;-69
2024/02/10 05:57:38;;;;;;;8.30;2.80;;;10.80;99.20;;;;;;5100051;28;20017;-69
2024/02/10 06:00:11;;;;;;;7.82;2.65;;;10.70;98.90;;;;;;5083745;28;20020;-67
2024/02/10 06:02:41;;;;;;;5.00;3.50;;;10.70;90.60;;;;;;5083657;28;20032;-67
2024/02/10 06:05:14;;;;;;;5.13;2.28;;;10.80;98.90;;;;;;5073673;28;20029;-66
2024/02/10 06:07:41;;;;;;;5.95;2.60;;;10.70;98.90;;;;;;5063411;28;20043;-66
2024/02/10 06:10:12;;;;;;;4.55;2.72;;;10.80;98.90;;;;;;5063230;28;20084;-66
2024/02/10 06:12:39;;;;;;;5.90;2.35;;;10.80;99.00;;;;;;5062081;28;20031;-67
2024/02/10 06:15:06;;;;;;;4.22;2.10;;;10.60;99.00;;;;;;5063430;28;20073;-69
2024/02/10 06:17:34;;;;;;;6.18;2.60;;;10.70;99.20;;;;;;5063135;28;20317;-68
2024/02/10 06:20:06;;;;;;;4.32;2.00;;;10.80;99.00;;;;;;5063206;28;20029;-67
2024/02/10 06:22:33;;;;;;;8.57;2.50;;;10.80;99.00;;;;;;5062972;28;20016;-68
2024/02/10 06:24:58;;;;;;;6.95;2.70;;;10.80;98.70;;;;;;5063234;28;20020;-68
2024/02/10 06:27:24;;;;;;;4.88;2.55;;;10.80;98.40;;;;;;5063160;28;20024;-67
2024/02/10 06:29:50;;;;;;;4.82;2.33;;;10.80;98.40;;;;;;5062827;28;20209;-68
2024/02/10 06:32:15;;;;;;;4.07;1.90;;;10.90;98.20;;;;;;5062648;28;20025;-66
2024/02/10 06:34:42;;;;;;;5.90;2.47;;;10.90;98.10;;;;;;5063055;28;20108;-65
2024/02/10 06:37:08;;;;;;;6.13;2.63;;;10.90;97.90;;;;;;5063000;28;20035;-64
2024/02/10 06:39:35;;;;;;;4.40;2.22;;;11.10;97.80;;;;;;5062679;28;20309;-65
2024/02/10 06:42:00;;;;;;;6.95;2.13;;;10.90;89.10;;;;;;5062989;28;20017;-65
2024/02/10 06:44:27;;;;;;;1.90;1.70;;;11.10;97.70;;;;;;5062558;28;20024;-67
2024/02/10 06:46:53;;;;;;;5.03;2.30;;;11.10;97.30;;;;;;5062949;28;20039;-67
2024/02/10 06:49:20;;;;;;;4.95;1.90;;;11.00;97.10;;;;;;5062742;28;20016;-67
2024/02/10 06:51:48;;;;;;;4.88;2.47;;;10.90;96.90;;;;;;5062834;28;20105;-67
2024/02/10 06:54:14;;;;;;;4.82;2.10;;;11.10;87.40;;;;;;5062571;28;20037;-67
2024/02/10 06:56:40;;;;;;;4.80;2.10;;;11.00;96.80;;;;;;5062456;28;20036;-67
2024/02/10 06:59:06;;;;;;;5.78;2.78;;;11.10;96.70;;;;;;5062367;28;20052;-67
2024/02/10 07:01:34;;;;;;;3.55;1.98;;;11.20;96.40;;;;;;5062311;28;20020;-67
2024/02/10 07:03:59;;;;;;;2.60;1.90;;;11.30;96.30;;;;;;5062611;28;20021;-67
2024/02/10 07:06:31;;;;;;;3.80;2.63;;;11.30;96.30;;;;;;5062602;28;20024;-68
2024/02/10 07:09:03;;;;;;;4.85;2.00;;;11.20;96.10;;;;;;5062382;28;20367;-66
2024/02/10 07:11:30;;;;;;;3.25;2.15;;;11.30;96.10;;;;;;5062296;28;20029;-68
2024/02/10 07:13:55;;;;;;;4.65;1.80;;;11.40;96.00;;;;;;5062154;28;20033;-68
2024/02/10 07:16:23;;;;;;;4.40;2.05;;;11.30;95.90;;;;;;5062347;28;20024;-69
2024/02/10 07:18:48;;;;;;;6.53;2.17;;;11.40;95.90;;;;;;5062077;28;20028;-69
2024/02/10 07:21:15;;;;;;;2.78;1.80;;;11.70;95.60;;;;;;5062011;28;20016;-65
2024/02/10 07:23:43;;;;;;;4.28;2.47;;;11.60;95.30;;;;;;5061993;28;20088;-65
2024/02/10 07:26:09;;;;;;;5.80;1.90;;;11.70;95.00;;;;;;5062111;28;20057;-65
2024/02/10 07:28:34;;;;;;;4.53;1.85;;;11.60;83.20;;;;;;5060872;28;20020;-65
2024/02/10 07:31:02;;;;;;;5.55;1.80;;;11.70;94.40;;;;;;5061973;28;20023;-65
2024/02/10 07:33:32;;;;;;;2.67;1.95;;;11.90;94.10;;;;;;5061517;28;20057;-66
2024/02/10 07:36:00;;;;;;;4.22;1.88;;;11.90;93.70;;;;;;5062212;28;20048;-65
2024/02/10 07:38:25;;;;;;;4.05;2.55;;;12.20;93.50;;;;;;5061891;28;20031;-65
2024/02/10 07:40:51;;;;;;;5.70;2.45;;;12.20;93.30;;;;;;5060840;28;20021;-66
2024/02/10 07:43:17;;;;;;;4.25;1.75;;;12.10;93.10;;;;;;5061708;28;20037;-65
2024/02/10 07:45:43;;;;;;;3.65;2.35;;;12.30;92.80;;;;;;5061532;28;20025;-65
2024/02/10 07:48:09;;;;;;;5.55;2.08;;;12.30;78.60;;;;;;5060384;28;20052;-65
2024/02/10 07:50:40;;;;;;;6.50;2.53;;;12.50;92.50;;;;;;5061761;28;20028;-65
2024/02/10 07:53:10;;;;;;;7.53;3.08;;;12.50;92.20;;;;;;5061556;28;20039;-66
2024/02/10 07:55:37;;;;;;;4.43;2.13;;;12.50;76.40;;;;;;5068574;28;20043;-65
2024/02/10 07:58:04;;;;;;;3.60;1.83;;;12.40;91.90;;;;;;5101762;28;20024;-66
2024/02/10 08:00:32;;;;;;;6.03;2.90;;;12.60;76.70;;;;;;5101606;28;20024;-66
2024/02/10 08:03:02;;;;;;;6.90;2.35;;;12.70;91.80;;;;;;5101805;28;20028;-67
2024/02/10 08:05:28;;;;;;;5.38;2.10;;;12.70;76.00;;;;;;5101610;28;20022;-68
2024/02/10 08:07:56;;;;;;;3.38;2.00;;;12.60;91.40;;;;;;5101328;28;20091;-66
2024/02/10 08:10:21;;;;;;;5.35;1.90;;;12.80;75.10;;;;;;5101741;28;20016;-65
2024/02/10 08:12:50;;;;;;;3.45;1.98;;;13.20;91.10;;;;;;5101550;28;20023;-64
2024/02/10 08:15:15;;;;;;;3.90;1.80;;;12.90;74.70;;;;;;5101657;28;20040;-66
2024/02/10 08:17:41;;;;;;;4.05;2.40;;;12.90;90.70;;;;;;5101480;28;20145;-69
2024/02/10 08:20:10;;;;;;;3.97;2.03;;;13.10;90.60;;;;;;5101256;28;20043;-68
2024/02/10 08:22:36;;;;;;;9.10;2.15;;;13.10;73.00;;;;;;5101221;28;20016;-69
2024/02/10 08:25:04;;;;;;;4.53;2.17;;;13.20;90.60;;;;;;5101461;28;20089;-69
2024/02/10 08:27:30;;;;;;;5.93;3.10;;;13.10;73.70;;;;;;5101445;28;20054;-68
2024/02/10 08:29:58;;;;;;;3.42;2.00;;;13.20;73.60;;;;;;5101087;28;20392;-67
2024/02/10 08:32:25;;;;;;;5.15;2.05;;;13.30;73.40;;;;;;5100872;28;20059;-66
2024/02/10 08:34:51;;;;;;;5.40;2.03;;;13.40;89.90;;;;;;5101351;28;20062;-66
2024/02/10 08:37:17;;;;;;;3.97;1.67;;;13.50;72.70;;;;;;5101122;28;20012;-67
2024/02/10 08:39:44;;;;;;;5.78;2.30;;;13.50;72.40;;;;;;5101153;28;20228;-65
2024/02/10 08:42:11;;;;;;;2.75;1.95;;;13.70;88.80;;;;;;5101244;28;20242;-69
2024/02/10 08:44:37;;;;;;;5.70;2.30;;;14.00;88.50;;;;;;5095272;28;20058;-65
2024/02/10 08:47:03;;;;;;;3.70;2.20;;;13.90;87.90;;;;;;5065174;28;20024;-65
2024/02/10 08:49:34;;;;;;;5.60;1.80;;;14.00;87.50;;;;;;5067642;28;20035;-66
2024/02/10 08:52:02;;;;;;;5.70;2.25;;;14.30;88.50;;;;;;5081360;28;20122;-68
2024/02/10 08:54:30;;;;;;;6.05;2.05;;;14.10;70.20;;;;;;5084721;28;20316;-66
2024/02/10 08:57:00;;;;;;;4.93;2.15;;;14.30;69.50;;;;;;5069671;28;20036;-66
2024/02/10 08:59:31;;;;;;;3.65;2.20;;;14.40;68.60;;;;;;5064876;28;20036;-65
2024/02/10 09:02:01;;;;;;;3.47;1.83;;;14.60;68.20;;;;;;5064615;28;20328;-65
2024/02/10 09:04:28;;;;;;;5.72;2.15;;;14.70;66.80;;;;;;5064473;28;20033;-67
2024/02/10 09:06:54;;;;;;;3.05;1.52;;;14.90;65.90;;;;;;5064678;28;20208;-67
2024/02/10 09:09:20;;;;;;;3.88;1.92;;;15.00;65.90;;;;;;5073019;28;20041;-66
2024/02/10 09:11:47;;;;;;;3.38;1.88;;;15.20;65.30;;;;;;5084699;28;20235;-64
2024/02/10 09:14:13;;;;;;;5.18;1.92;;;15.30;64.70;;;;;;5084287;28;20036;-65
2024/02/10 09:16:38;;;;;;;2.97;1.40;;;15.40;80.80;;;;;;5084596;28;20016;-65
2024/02/10 09:19:04;;;;;;;5.68;1.88;;;15.40;64.30;;;;;;5084508;28;20086;-66
2024/02/10 09:21:30;;;;;;;2.92;1.42;;;15.50;62.10;;;;;;5083182;28;20377;-66
2024/02/10 09:23:58;;;;;;;4.78;2.45;;;15.50;62.90;;;;;;5084270;28;20028;-65
2024/02/10 09:26:25;;;;;;;4.65;1.70;;;15.60;62.60;;;;;;5090746;28;20069;-66
2024/02/10 09:28:50;;;;;;;4.43;1.83;;;15.60;62.40;;;;;;5104381;28;20032;-66
2024/02/10 09:31:16;;;;;;;3.60;2.10;;;15.70;62.10;;;;;;5104244;28;20053;-67
2024/02/10 09:33:43;;;;;;;4.88;2.05;;;15.70;62.50;;;;;;5102873;28;20078;-67
2024/02/10 09:36:13;;;;;;;14.48;2.20;;;15.90;63.10;;;;;;5104575;28;20016;-67
2024/02/10 09:38:41;;;;;;;4.25;1.77;;;16.00;62.80;;;;;;5104446;28;20316;-67
2024/02/10 09:41:11;;;;;;;6.45;1.73;;;16.30;79.20;;;;;;5104278;28;20024;-67
2024/02/10 09:43:48;;;;;;;4.65;1.85;;;16.00;62.60;;;;;;5104399;28;20056;-67
2024/02/10 09:46:14;;;;;;;7.65;2.08;;;16.00;62.10;;;;;;5104466;28;20012;-67
2024/02/10 09:48:41;;;;;;;6.45;1.98;;;15.90;62.20;;;;;;5104451;28;20043;-67
2024/02/10 09:51:08;;;;;;;4.30;1.80;;;15.80;62.30;;;;;;5104247;28;20042;-67
2024/02/10 09:53:34;;;;;;;12.52;3.58;;;15.80;78.80;;;;;;5104150;28;20039;-67
2024/02/10 09:56:00;;;;;;;4.60;1.48;;;15.90;62.20;;;;;;5094241;28;20021;-68
2024/02/10 09:58:26;;;;;;;9.07;2.30;;;15.90;61.60;;;;;;5103904;28;20079;-67
2024/02/10 10:00:52;;;;;;;3.53;2.20;;;15.90;61.30;;;;;;5103892;28;20055;-67
2024/02/10 10:03:19;;;;;;;5.35;2.58;;;16.00;60.80;;;;;;5103390;28;20031;-67
2024/02/10 10:05:45;;;;;;;3.05;1.70;;;16.20;77.60;;;;;;5103237;28;20016;-68
2024/02/10 10:08:11;;;;;;;2.30;1.23;;;16.10;60.90;;;;;;5103841;28;20245;-68
2024/02/10 10:10:38;;;;;;;7.07;2.20;;;16.20;60.50;;;;;;5103823;28;20027;-67
2024/02/10 10:13:08;;;;;;;8.18;2.35;;;16.40;60.20;;;;;;5088734;28;20416;-67
2024/02/10 10:15:36;;;;;;;6.50;2.42;;;16.60;59.40;;;;;;5071842;28;20029;-65
2024/02/10 10:18:03;;;;;;;4.03;1.55;;;16.70;59.00;;;;;;5079590;28;20024;-64
2024/02/10 10:20:32;;;;;;;6.10;2.00;;;16.80;57.70;;;;;;5070575;28;20079;-67
2024/02/10 10:22:58;;;;;;;7.32;1.85;;;16.80;57.10;;;;;;5063030;28;20047;-65
2024/02/10 10:25:27;;;;;;;7.03;2.25;;;16.70;57.70;;;;;;5063194;28;20025;-64
2024/02/10 10:27:53;;;;;;;;;;;16.60;57.50;;;;;;5063371;28;20223;-65
2024/02/10 10:30:25;;;;;;;5.82;1.70;;;16.40;74.10;;;;;;5088856;28;20084;-65
2024/02/10 10:32:53;;;;;;;5.68;2.10;;;16.50;57.90;;;;;;5103017;28;20039;-65
2024/02/10 10:35:19;;;;;;;7.07;1.50;;;16.30;57.60;;;;;;5084542;28;20051;-65
2024/02/10 10:37:48;;;;;;;5.75;2.00;;;16.10;57.70;;;;;;5074522;28;20316;-65
2024/02/10 10:40:14;;;;;;;6.05;1.67;;;16.00;57.90;;;;;;5062893;28;20016;-65
2024/02/10 10:42:41;;;;;;;4.95;1.83;;;15.90;58.00;;;;;;5062931;28;20067;-65
2024/02/10 10:45:08;;;;;;;4.25;2.20;;;15.80;58.30;;;;;;5062833;28;20556;-65
2024/02/10 10:47:40;;;;;;;5.40;1.85;;;15.80;74.40;;;;;;5062647;28;20047;-65
2024/02/10 10:50:08;;;;;;;4.18;2.03;;;15.90;58.20;;;;;;5062537;28;20023;-65
2024/02/10 10:52:39;;;;;;;8.40;2.10;;;16.10;58.10;;;;;;5062640;28;20088;-65
2024/02/10 10:55:09;;;;;;;7.38;2.45;;;16.30;57.90;;;;;;5062652;28;20033;-65
2024/02/10 10:57:36;;;;;;;5.60;1.83;;;16.50;57.50;;;;;;5062247;28;20387;-65
2024/02/10 11:00:15;;;;;;;3.65;1.90;;;16.70;56.30;;;;;;5062436;28;20048;-65
2024/02/10 11:02:42;;;;;;;6.35;1.95;;;16.80;55.90;;;;;;5062525;28;20033;-65
2024/02/10 11:05:16;;;;;;;6.75;1.90;;;17.00;70.70;;;;;;5062227;28;20057;-65
2024/02/10 11:07:48;;;;;;;6.07;2.10;;;17.00;54.80;;;;;;5062478;28;20028;-65
2024/02/10 11:10:37;;;;;;;6.63;2.00;;;17.10;54.10;;;;;;5062309;28;20035;-65
2024/02/10 11:13:04;;;;;;;7.22;1.95;;;17.20;53.90;;;;;;5061945;28;20032;-66
2024/02/10 11:15:30;;;;;;;8.05;2.25;;;17.20;53.00;;;;;;5061100;28;20330;-65
2024/02/10 11:17:56;;;;;;;5.82;2.25;;;17.30;53.00;;;;;;5062032;28;20063;-65
2024/02/10 11:20:26;;;;;;;4.55;1.83;;;17.40;52.80;;;;;;5061842;28;20017;-64
2024/02/10 11:22:53;;;;;;;6.35;2.40;;;17.60;68.50;;;;;;5062012;28;20196;-65
2024/02/10 11:25:22;;;;;;;4.45;1.90;;;17.50;52.40;;;;;;5061869;28;20542;-65
2024/02/10 11:27:48;;;;;;;4.40;1.90;;;17.60;52.10;;;;;;5062111;28;20098;-65
2024/02/10 11:30:14;;;;;;;9.48;2.35;;;17.80;52.10;;;;;;5061773;28;20047;-65
2024/02/10 11:32:48;;;;;;;7.28;2.33;;;17.80;51.80;;;;;;5061613;28;20358;-65
2024/02/10 11:35:14;;;;;;;6.38;2.22;;;17.80;52.20;;;;;;5061609;28;20351;-65
2024/02/10 11:37:40;;;;;;;6.22;1.80;;;17.90;51.80;;;;;;5061551;28;20053;-65
2024/02/10 11:40:07;;;;;;;5.03;1.70;;;17.90;65.90;;;;;;5061707;28;20025;-65
2024/02/10 11:42:36;;;;;;;4.68;1.98;;;18.10;51.70;;;;;;5061474;28;20622;-65
2024/02/10 11:45:03;;;;;;;4.95;2.05;;;18.10;50.70;;;;;;5061970;28;20025;-65
2024/02/10 11:47:30;;;;;;;7.60;1.98;;;18.20;50.30;;;;;;5061402;28;20080;-65
2024/02/10 11:49:56;;;;;;;9.43;2.05;;;18.60;50.30;;;;;;5061439;28;20296;-65
2024/02/10 11:52:26;;;;;;;7.07;2.08;;;18.30;50.10;;;;;;5061279;28;20375;-65
2024/02/10 11:54:54;;;;;;;8.40;2.15;;;18.40;49.80;;;;;;5061459;28;20076;-65
2024/02/10 11:57:22;;;;;;;6.72;2.25;;;18.50;49.70;;;;;;5061264;28;20394;-65
2024/02/10 11:59:48;;;;;;;9.43;2.00;;;18.60;49.10;;;;;;5061119;28;20224;-66
2024/02/10 12:02:15;;;;;;;5.85;2.08;;;18.60;48.90;;;;;;5061093;28;20056;-65
2024/02/10 12:04:47;;;;;;;9.43;2.25;;;18.80;63.40;;;;;;5061243;28;20052;-65
2024/02/10 12:07:13;;;;;;;9.13;2.58;;;18.60;48.50;;;;;;5059821;28;20248;-66
2024/02/10 12:09:39;;;;;;;5.43;2.42;;;18.80;48.50;;;;;;5061294;28;20032;-66
2024/02/10 12:12:06;;;;;;;6.53;1.95;;;18.80;47.70;;;;;;5061235;28;20075;-65
2024/02/10 12:14:32;;;;;;;5.55;2.03;;;18.90;48.30;;;;;;5060894;28;20241;-65
2024/02/10 12:17:05;;;;;;;6.70;2.58;;;18.90;47.60;;;;;;5061102;28;20024;-65
2024/02/10 12:19:38;;;;;;;4.60;2.05;;;18.80;47.50;;;;;;5061320;28;20070;-66
2024/02/10 12:22:08;;;;;;;7.22;2.22;;;19.00;46.70;;;;;;5061154;28;20141;-65
2024/02/10 12:24:33;;;;;;;6.72;2.03;;;19.00;47.10;;;;;;5061283;28;20013;-65
2024/02/10 12:27:02;;;;;;;6.20;1.88;;;19.10;46.90;;;;;;5060855;28;20618;-65
2024/02/10 12:29:31;;;;;;;2.92;1.55;;;19.20;47.00;;;;;;5062953;28;20017;-65
2024/02/10 12:31:56;;;;;;;9.68;2.30;;;19.30;46.50;;;;;;5069494;28;20020;-65
2024/02/10 12:34:22;;;;;;;7.13;1.33;;;19.40;46.30;;;;;;5080579;28;20098;-65
2024/02/10 12:36:48;;;;;;;4.78;1.45;;;19.50;45.50;;;;;;5080759;28;20024;-65
2024/02/10 12:39:14;;;;;;;7.75;2.17;;;19.50;45.20;;;;;;5081087;28;20021;-65
2024/02/10 12:41:42;;;;;;;6.57;2.10;;;19.40;45.30;;;;;;5081003;28;20024;-65
2024/02/10 12:44:10;;;;;;;8.77;2.30;;;19.50;45.40;;;;;;5080833;28;20020;-65
2024/02/10 12:46:36;;;;;;;6.20;2.45;;;19.60;58.60;;;;;;5080648;28;20232;-65
2024/02/10 12:49:02;;;;;;;4.38;1.52;;;19.70;45.20;;;;;;5080684;28;20025;-66